sensor_id;sensor_type;location;lat;lon;timestamp;pressure;altitude;pressure_sealevel;temperature;humidity
1652;BME280;823;49.028;8.454;2023-04-04T00:03:48;101381.56;;;5.55;40.45
1652;BME280;823;49.028;8.454;2023-04-04T00:08:50;101385.00;;;5.58;39.98
1652;BME280;823;49.028;8.454;2023-04-04T00:13:50;101365.31;;;5.56;40.67
1652;BME280;823;49.028;8.454;2023-04-04T00:18:51;101364.38;;;5.27;40.60
1652;BME280;823;49.028;8.454;2023-04-04T00:23:52;101361.81;;;5.38;40.33
1652;BME280;823;49.028;8.454;2023-04-04T00:28:53;101363.53;;;5.38;40.53
1652;BME280;823;49.028;8.454;2023-04-04T00:33:53;101372.84;;;5.14;41.09
1652;BME280;823;49.028;8.454;2023-04-04T00:38:54;101360.91;;;5.19;41.55
1652;BME280;823;49.028;8.454;2023-04-04T00:43:54;101363.50;;;5.25;41.11
1652;BME280;823;49.028;8.454;2023-04-04T00:48:56;101360.78;;;5.02;41.36
1652;BME280;823;49.028;8.454;2023-04-04T00:53:57;101351.44;;;5.09;41.50
1652;BME280;823;49.028;8.454;2023-04-04T00:58:59;101350.66;;;5.22;41.46
1652;BME280;823;49.028;8.454;2023-04-04T01:03:59;101352.25;;;4.99;41.74
1652;BME280;823;49.028;8.454;2023-04-04T01:09:02;101344.59;;;5.08;41.76
1652;BME280;823;49.028;8.454;2023-04-04T01:14:03;101348.81;;;5.00;42.35
1652;BME280;823;49.028;8.454;2023-04-04T01:19:05;101350.44;;;4.85;42.73
1652;BME280;823;49.028;8.454;2023-04-04T01:24:08;101354.72;;;4.85;42.41
1652;BME280;823;49.028;8.454;2023-04-04T01:29:12;101341.03;;;4.78;42.55
1652;BME280;823;49.028;8.454;2023-04-04T01:39:40;101343.59;;;4.81;42.52
1652;BME280;823;49.028;8.454;2023-04-04T01:44:42;101342.63;;;4.64;42.66
1652;BME280;823;49.028;8.454;2023-04-04T01:49:43;101340.09;;;4.68;42.47
1652;BME280;823;49.028;8.454;2023-04-04T01:54:43;101336.47;;;4.38;42.85
1652;BME280;823;49.028;8.454;2023-04-04T01:59:43;101336.56;;;4.52;42.73
1652;BME280;823;49.028;8.454;2023-04-04T02:04:44;101342.53;;;4.51;42.64
1652;BME280;823;49.028;8.454;2023-04-04T02:09:44;101339.91;;;4.40;43.04
1652;BME280;823;49.028;8.454;2023-04-04T02:14:45;101345.03;;;4.42;42.90
1652;BME280;823;49.028;8.454;2023-04-04T02:19:45;101340.88;;;4.56;42.93
1652;BME280;823;49.028;8.454;2023-04-04T02:24:45;101339.03;;;4.43;43.22
1652;BME280;823;49.028;8.454;2023-04-04T02:29:46;101331.34;;;4.38;43.17
1652;BME280;823;49.028;8.454;2023-04-04T02:34:46;101322.84;;;4.47;43.13
1652;BME280;823;49.028;8.454;2023-04-04T02:39:46;101331.34;;;4.41;43.08
1652;BME280;823;49.028;8.454;2023-04-04T02:44:47;101324.47;;;4.31;42.82
1652;BME280;823;49.028;8.454;2023-04-04T02:49:47;101324.50;;;4.36;42.87
1652;BME280;823;49.028;8.454;2023-04-04T02:54:48;101327.94;;;4.38;43.28
1652;BME280;823;49.028;8.454;2023-04-04T02:59:49;101326.94;;;4.25;43.11
1652;BME280;823;49.028;8.454;2023-04-04T03:04:50;101333.75;;;4.17;43.28
1652;BME280;823;49.028;8.454;2023-04-04T03:09:50;101327.88;;;4.32;43.52
1652;BME280;823;49.028;8.454;2023-04-04T03:14:51;101338.06;;;4.22;43.56
1652;BME280;823;49.028;8.454;2023-04-04T03:19:51;101336.22;;;4.06;43.34
1652;BME280;823;49.028;8.454;2023-04-04T03:24:51;101335.41;;;4.15;43.31
1652;BME280;823;49.028;8.454;2023-04-04T03:29:52;101332.03;;;4.16;43.47
1652;BME280;823;49.028;8.454;2023-04-04T03:34:52;101339.72;;;4.19;43.61
1652;BME280;823;49.028;8.454;2023-04-04T03:39:52;101332.72;;;3.98;43.95
1652;BME280;823;49.028;8.454;2023-04-04T03:44:53;101338.59;;;3.89;43.68
1652;BME280;823;49.028;8.454;2023-04-04T03:49:53;101324.16;;;3.96;43.56
1652;BME280;823;49.028;8.454;2023-04-04T03:54:55;101339.44;;;3.88;44.38
1652;BME280;823;49.028;8.454;2023-04-04T03:59:55;101340.22;;;3.81;44.06
1652;BME280;823;49.028;8.454;2023-04-04T04:04:55;101348.66;;;3.72;44.73
1652;BME280;823;49.028;8.454;2023-04-04T04:09:55;101352.81;;;3.64;44.31
1652;BME280;823;49.028;8.454;2023-04-04T04:14:56;101347.00;;;3.77;44.52
1652;BME280;823;49.028;8.454;2023-04-04T04:19:56;101349.50;;;3.71;44.71
1652;BME280;823;49.028;8.454;2023-04-04T04:24:56;101344.44;;;3.74;44.51
1652;BME280;823;49.028;8.454;2023-04-04T04:29:57;101345.28;;;3.78;44.62
1652;BME280;823;49.028;8.454;2023-04-04T04:34:57;101350.16;;;3.54;44.60
1652;BME280;823;49.028;8.454;2023-04-04T04:39:57;101346.91;;;3.69;44.86
1652;BME280;823;49.028;8.454;2023-04-04T04:44:59;101351.94;;;3.60;45.20
1652;BME280;823;49.028;8.454;2023-04-04T04:49:59;101349.41;;;3.63;44.83
1652;BME280;823;49.028;8.454;2023-04-04T04:55:00;101353.63;;;3.60;45.35
1652;BME280;823;49.028;8.454;2023-04-04T05:00:01;101355.34;;;3.59;46.06
1652;BME280;823;49.028;8.454;2023-04-04T05:05:03;101355.25;;;3.53;45.25
1652;BME280;823;49.028;8.454;2023-04-04T05:10:04;101352.66;;;3.48;45.46
1652;BME280;823;49.028;8.454;2023-04-04T05:15:05;101364.66;;;3.52;45.57
1652;BME280;823;49.028;8.454;2023-04-04T05:20:06;101373.81;;;3.36;46.24
1652;BME280;823;49.028;8.454;2023-04-04T05:25:07;101366.28;;;3.47;45.75
1652;BME280;823;49.028;8.454;2023-04-04T05:30:07;101372.22;;;3.45;45.69
1652;BME280;823;49.028;8.454;2023-04-04T05:35:08;101383.31;;;3.44;45.94
1652;BME280;823;49.028;8.454;2023-04-04T05:40:08;101366.41;;;3.56;45.49
1652;BME280;823;49.028;8.454;2023-04-04T05:45:09;101372.34;;;3.57;45.82
1652;BME280;823;49.028;8.454;2023-04-04T05:50:10;101368.19;;;3.67;45.04
1652;BME280;823;49.028;8.454;2023-04-04T05:55:10;101364.28;;;3.98;45.08
1652;BME280;823;49.028;8.454;2023-04-04T06:00:11;101374.66;;;4.12;44.91
1652;BME280;823;49.028;8.454;2023-04-04T06:05:12;101382.66;;;4.49;43.98
1652;BME280;823;49.028;8.454;2023-04-04T06:10:12;101383.69;;;4.74;44.03
1652;BME280;823;49.028;8.454;2023-04-04T06:15:13;101378.72;;;4.96;42.93
1652;BME280;823;49.028;8.454;2023-04-04T06:20:13;101386.47;;;5.05;42.37
1652;BME280;823;49.028;8.454;2023-04-04T06:25:13;101381.50;;;5.39;42.35
1652;BME280;823;49.028;8.454;2023-04-04T06:30:14;101384.16;;;5.67;41.18
1652;BME280;823;49.028;8.454;2023-04-04T06:35:16;101376.53;;;5.87;40.95
1652;BME280;823;49.028;8.454;2023-04-04T06:40:16;101381.72;;;6.09;40.44
1652;BME280;823;49.028;8.454;2023-04-04T06:45:17;101388.59;;;6.22;39.99
1652;BME280;823;49.028;8.454;2023-04-04T06:50:19;101380.06;;;6.23;39.20
1652;BME280;823;49.028;8.454;2023-04-04T06:55:20;101380.06;;;6.51;39.41
1652;BME280;823;49.028;8.454;2023-04-04T07:00:22;101370.63;;;6.47;40.00
1652;BME280;823;49.028;8.454;2023-04-04T07:05:22;101376.63;;;6.66;38.25
1652;BME280;823;49.028;8.454;2023-04-04T07:10:23;101378.31;;;6.84;37.95
1652;BME280;823;49.028;8.454;2023-04-04T07:15:24;101375.66;;;7.15;37.71
1652;BME280;823;49.028;8.454;2023-04-04T07:20:24;101379.94;;;7.18;36.88
1652;BME280;823;49.028;8.454;2023-04-04T07:25:26;101374.81;;;7.16;36.76
1652;BME280;823;49.028;8.454;2023-04-04T07:30:26;101371.31;;;7.36;36.83
1652;BME280;823;49.028;8.454;2023-04-04T07:35:29;101375.56;;;7.41;35.99
1652;BME280;823;49.028;8.454;2023-04-04T07:40:29;101364.44;;;7.36;36.30
1652;BME280;823;49.028;8.454;2023-04-04T07:45:30;101366.13;;;7.42;35.55
1652;BME280;823;49.028;8.454;2023-04-04T07:50:31;101365.25;;;7.44;35.90
1652;BME280;823;49.028;8.454;2023-04-04T07:55:31;101358.41;;;7.46;36.45
1652;BME280;823;49.028;8.454;2023-04-04T08:00:31;101366.97;;;7.48;36.63
1652;BME280;823;49.028;8.454;2023-04-04T08:05:32;101362.59;;;7.66;35.40
1652;BME280;823;49.028;8.454;2023-04-04T08:10:32;101364.97;;;8.03;35.72
1652;BME280;823;49.028;8.454;2023-04-04T08:15:32;101359.69;;;8.14;34.12
1652;BME280;823;49.028;8.454;2023-04-04T08:20:33;101360.53;;;8.19;34.20
1652;BME280;823;49.028;8.454;2023-04-04T08:25:34;101357.94;;;8.22;35.36
1652;BME280;823;49.028;8.454;2023-04-04T08:30:35;101352.59;;;8.51;34.97
1652;BME280;823;49.028;8.454;2023-04-04T08:35:35;101360.06;;;8.78;33.31
1652;BME280;823;49.028;8.454;2023-04-04T08:40:36;101363.66;;;8.63;32.40
1652;BME280;823;49.028;8.454;2023-04-04T08:45:39;101364.28;;;8.86;32.27
1652;BME280;823;49.028;8.454;2023-04-04T08:50:41;101361.78;;;8.76;31.88
1652;BME280;823;49.028;8.454;2023-04-04T08:55:44;101354.63;;;9.02;32.58
1652;BME280;823;49.028;8.454;2023-04-04T09:00:44;101352.03;;;9.02;32.45
1652;BME280;823;49.028;8.454;2023-04-04T09:05:45;101359.94;;;8.89;32.63
1652;BME280;823;49.028;8.454;2023-04-04T09:10:46;101354.47;;;9.18;32.08
1652;BME280;823;49.028;8.454;2023-04-04T09:15:53;101359.63;;;9.16;31.80
1652;BME280;823;49.028;8.454;2023-04-04T09:20:56;101358.38;;;9.48;32.73
1652;BME280;823;49.028;8.454;2023-04-04T09:25:56;101346.13;;;9.64;31.32
1652;BME280;823;49.028;8.454;2023-04-04T09:31:00;101341.50;;;9.86;30.58
1652;BME280;823;49.028;8.454;2023-04-04T09:36:05;101336.75;;;9.59;29.41
1652;BME280;823;49.028;8.454;2023-04-04T09:41:06;101340.38;;;9.44;29.92
1652;BME280;823;49.028;8.454;2023-04-04T09:46:10;101325.69;;;9.49;30.55
1652;BME280;823;49.028;8.454;2023-04-04T09:51:11;101331.38;;;9.73;29.90
1652;BME280;823;49.028;8.454;2023-04-04T09:56:12;101339.78;;;9.87;30.38
1652;BME280;823;49.028;8.454;2023-04-04T10:01:12;101336.66;;;9.66;29.30
1652;BME280;823;49.028;8.454;2023-04-04T10:06:13;101335.97;;;10.11;30.46
1652;BME280;823;49.028;8.454;2023-04-04T10:11:27;101342.16;;;10.01;29.51
1652;BME280;823;49.028;8.454;2023-04-04T10:16:32;101340.03;;;10.28;29.38
1652;BME280;823;49.028;8.454;2023-04-04T10:21:33;101332.13;;;10.38;30.69
1652;BME280;823;49.028;8.454;2023-04-04T10:26:34;101346.03;;;10.28;29.40
1652;BME280;823;49.028;8.454;2023-04-04T10:31:40;101332.06;;;10.42;29.16
1652;BME280;823;49.028;8.454;2023-04-04T10:36:45;101338.50;;;10.69;28.18
1652;BME280;823;49.028;8.454;2023-04-04T10:41:49;101327.88;;;10.34;28.78
1652;BME280;823;49.028;8.454;2023-04-04T10:46:53;101328.50;;;10.47;27.89
1652;BME280;823;49.028;8.454;2023-04-04T10:51:55;101331.78;;;10.57;28.79
1652;BME280;823;49.028;8.454;2023-04-04T10:56:56;101333.19;;;10.75;29.42
1652;BME280;823;49.028;8.454;2023-04-04T11:02:01;101313.13;;;10.86;28.05
1652;BME280;823;49.028;8.454;2023-04-04T11:12:08;101308.47;;;11.04;28.10
1652;BME280;823;49.028;8.454;2023-04-04T11:17:14;101305.38;;;11.29;28.65
1652;BME280;823;49.028;8.454;2023-04-04T11:22:14;101305.28;;;10.91;26.65
1652;BME280;823;49.028;8.454;2023-04-04T11:27:15;101296.81;;;11.25;28.77
1652;BME280;823;49.028;8.454;2023-04-04T11:32:40;101310.56;;;11.29;27.57
1652;BME280;823;49.028;8.454;2023-04-04T11:42:54;101289.81;;;11.30;28.39
1652;BME280;823;49.028;8.454;2023-04-04T11:48:02;101290.84;;;11.21;26.99
1652;BME280;823;49.028;8.454;2023-04-04T11:53:05;101282.34;;;11.16;27.16
1652;BME280;823;49.028;8.454;2023-04-04T11:58:10;101283.06;;;11.23;27.52
1652;BME280;823;49.028;8.454;2023-04-04T12:03:11;101284.63;;;11.30;27.30
1652;BME280;823;49.028;8.454;2023-04-04T12:08:12;101266.28;;;11.41;26.49
1652;BME280;823;49.028;8.454;2023-04-04T12:13:13;101275.00;;;11.37;27.05
1652;BME280;823;49.028;8.454;2023-04-04T12:18:20;101257.28;;;11.56;26.54
1652;BME280;823;49.028;8.454;2023-04-04T12:23:20;101261.03;;;11.80;27.60
1652;BME280;823;49.028;8.454;2023-04-04T12:28:21;101261.16;;;11.74;26.34
1652;BME280;823;49.028;8.454;2023-04-04T12:33:22;101257.94;;;11.64;26.55
1652;BME280;823;49.028;8.454;2023-04-04T12:38:22;101251.81;;;11.68;28.05
1652;BME280;823;49.028;8.454;2023-04-04T12:43:27;101253.59;;;11.66;26.60
1652;BME280;823;49.028;8.454;2023-04-04T12:48:28;101248.78;;;11.87;26.85
1652;BME280;823;49.028;8.454;2023-04-04T12:53:29;101230.72;;;11.82;27.08
1652;BME280;823;49.028;8.454;2023-04-04T12:58:30;101225.28;;;11.95;27.40
1652;BME280;823;49.028;8.454;2023-04-04T13:03:32;101230.47;;;11.93;26.89
1652;BME280;823;49.028;8.454;2023-04-04T13:08:32;101228.25;;;11.78;27.50
1652;BME280;823;49.028;8.454;2023-04-04T13:18:41;101215.84;;;11.90;27.30
1652;BME280;823;49.028;8.454;2023-04-04T13:23:42;101210.28;;;11.71;27.67
1652;BME280;823;49.028;8.454;2023-04-04T13:28:43;101202.69;;;12.00;27.38
1652;BME280;823;49.028;8.454;2023-04-04T13:33:43;101209.53;;;12.02;27.26
1652;BME280;823;49.028;8.454;2023-04-04T13:38:43;101191.88;;;12.17;26.79
1652;BME280;823;49.028;8.454;2023-04-04T13:43:44;101196.94;;;12.21;26.61
1652;BME280;823;49.028;8.454;2023-04-04T13:48:44;101181.84;;;12.36;26.78
1652;BME280;823;49.028;8.454;2023-04-04T13:53:44;101169.84;;;12.32;25.50
1652;BME280;823;49.028;8.454;2023-04-04T13:58:45;101179.53;;;12.25;26.12
1652;BME280;823;49.028;8.454;2023-04-04T14:03:46;101173.31;;;11.99;26.96
1652;BME280;823;49.028;8.454;2023-04-04T14:08:46;101172.97;;;12.13;26.82
1652;BME280;823;49.028;8.454;2023-04-04T14:13:47;101169.41;;;12.47;26.60
1652;BME280;823;49.028;8.454;2023-04-04T14:18:47;101171.91;;;12.52;26.27
1652;BME280;823;49.028;8.454;2023-04-04T14:23:48;101171.56;;;12.63;25.48
1652;BME280;823;49.028;8.454;2023-04-04T14:28:48;101163.91;;;12.58;25.70
1652;BME280;823;49.028;8.454;2023-04-04T14:33:48;101165.00;;;12.51;26.73
1652;BME280;823;49.028;8.454;2023-04-04T14:38:49;101157.25;;;12.49;25.88
1652;BME280;823;49.028;8.454;2023-04-04T14:43:49;101162.69;;;12.08;27.11
1652;BME280;823;49.028;8.454;2023-04-04T14:48:51;101164.25;;;12.16;26.78
1652;BME280;823;49.028;8.454;2023-04-04T14:53:52;101160.53;;;12.56;27.44
1652;BME280;823;49.028;8.454;2023-04-04T14:58:52;101153.84;;;12.17;26.94
1652;BME280;823;49.028;8.454;2023-04-04T15:03:53;101145.44;;;12.39;26.82
1652;BME280;823;49.028;8.454;2023-04-04T15:08:54;101160.53;;;12.56;26.81
1652;BME280;823;49.028;8.454;2023-04-04T15:13:55;101162.16;;;12.58;26.18
1652;BME280;823;49.028;8.454;2023-04-04T15:18:56;101152.97;;;12.76;27.05
1652;BME280;823;49.028;8.454;2023-04-04T15:23:56;101152.19;;;12.74;26.10
1652;BME280;823;49.028;8.454;2023-04-04T15:28:56;101147.78;;;12.17;25.77
1652;BME280;823;49.028;8.454;2023-04-04T15:33:57;101135.88;;;12.09;26.54
1652;BME280;823;49.028;8.454;2023-04-04T15:38:58;101136.06;;;12.03;27.18
1652;BME280;823;49.028;8.454;2023-04-04T15:43:58;101122.72;;;12.17;27.19
1652;BME280;823;49.028;8.454;2023-04-04T15:48:59;101118.56;;;12.12;26.98
1652;BME280;823;49.028;8.454;2023-04-04T15:54:00;101119.22;;;11.85;27.31
1652;BME280;823;49.028;8.454;2023-04-04T15:59:00;101114.97;;;11.83;26.70
1652;BME280;823;49.028;8.454;2023-04-04T16:04:01;101128.16;;;11.39;27.16
1652;BME280;823;49.028;8.454;2023-04-04T16:09:01;101110.56;;;11.52;28.14
1652;BME280;823;49.028;8.454;2023-04-04T16:14:02;101113.50;;;11.72;27.59
1652;BME280;823;49.028;8.454;2023-04-04T16:19:02;101114.97;;;11.83;27.11
1652;BME280;823;49.028;8.454;2023-04-04T16:24:02;101114.78;;;11.89;27.30
1652;BME280;823;49.028;8.454;2023-04-04T16:29:04;101111.72;;;11.74;27.86
1652;BME280;823;49.028;8.454;2023-04-04T16:34:05;101107.84;;;11.91;27.09
1652;BME280;823;49.028;8.454;2023-04-04T16:39:06;101102.91;;;11.82;27.34
1652;BME280;823;49.028;8.454;2023-04-04T16:44:06;101104.84;;;11.73;26.98
1652;BME280;823;49.028;8.454;2023-04-04T16:49:06;101095.59;;;11.96;27.00
1652;BME280;823;49.028;8.454;2023-04-04T16:54:07;101099.03;;;11.64;27.77
1652;BME280;823;49.028;8.454;2023-04-04T16:59:07;101096.13;;;11.76;27.40
1652;BME280;823;49.028;8.454;2023-04-04T17:04:08;101093.09;;;11.60;26.75
1652;BME280;823;49.028;8.454;2023-04-04T17:09:08;101095.34;;;11.72;26.90
1652;BME280;823;49.028;8.454;2023-04-04T17:14:09;101082.56;;;11.66;27.49
1652;BME280;823;49.028;8.454;2023-04-04T17:19:09;101088.84;;;11.57;27.43
1652;BME280;823;49.028;8.454;2023-04-04T17:24:10;101091.31;;;11.62;27.33
1652;BME280;823;49.028;8.454;2023-04-04T17:29:10;101093.41;;;11.48;28.07
1652;BME280;823;49.028;8.454;2023-04-04T17:34:11;101084.50;;;11.23;28.63
1652;BME280;823;49.028;8.454;2023-04-04T17:39:11;101091.53;;;11.18;28.68
1652;BME280;823;49.028;8.454;2023-04-04T17:44:12;101087.44;;;11.10;28.51
1652;BME280;823;49.028;8.454;2023-04-04T17:49:13;101090.34;;;10.96;28.83
1652;BME280;823;49.028;8.454;2023-04-04T17:54:18;101087.06;;;10.89;29.37
1652;BME280;823;49.028;8.454;2023-04-04T17:59:19;101077.66;;;10.85;29.98
1652;BME280;823;49.028;8.454;2023-04-04T18:04:20;101088.44;;;10.66;29.73
1652;BME280;823;49.028;8.454;2023-04-04T18:09:22;101083.00;;;10.38;30.23
1652;BME280;823;49.028;8.454;2023-04-04T18:14:22;101082.66;;;10.55;30.01
1652;BME280;823;49.028;8.454;2023-04-04T18:19:22;101087.84;;;10.53;30.29
1652;BME280;823;49.028;8.454;2023-04-04T18:24:23;101089.84;;;10.41;30.39
1652;BME280;823;49.028;8.454;2023-04-04T18:29:25;101091.63;;;10.37;30.73
1652;BME280;823;49.028;8.454;2023-04-04T18:34:26;101089.19;;;10.29;31.05
1652;BME280;823;49.028;8.454;2023-04-04T18:39:26;101092.63;;;10.30;30.88
1652;BME280;823;49.028;8.454;2023-04-04T18:44:27;101094.34;;;10.29;31.07
1652;BME280;823;49.028;8.454;2023-04-04T18:49:27;101098.75;;;10.24;31.78
1652;BME280;823;49.028;8.454;2023-04-04T18:54:28;101100.63;;;10.17;31.46
1652;BME280;823;49.028;8.454;2023-04-04T18:59:28;101102.47;;;10.12;32.07
1652;BME280;823;49.028;8.454;2023-04-04T19:04:31;101104.41;;;9.99;31.86
1652;BME280;823;49.028;8.454;2023-04-04T19:09:35;101112.28;;;9.93;31.93
1652;BME280;823;49.028;8.454;2023-04-04T19:14:35;101118.31;;;9.94;32.25
1652;BME280;823;49.028;8.454;2023-04-04T19:19:35;101116.00;;;9.78;32.66
1652;BME280;823;49.028;8.454;2023-04-04T19:24:36;101111.75;;;9.76;32.67
1652;BME280;823;49.028;8.454;2023-04-04T19:29:39;101114.53;;;9.63;33.06
1652;BME280;823;49.028;8.454;2023-04-04T19:34:41;101121.53;;;9.58;33.07
1652;BME280;823;49.028;8.454;2023-04-04T19:39:41;101123.34;;;9.53;33.98
1652;BME280;823;49.028;8.454;2023-04-04T19:44:42;101132.19;;;9.38;34.02
1652;BME280;823;49.028;8.454;2023-04-04T19:49:43;101124.38;;;9.41;34.79
1652;BME280;823;49.028;8.454;2023-04-04T19:54:44;101134.16;;;9.20;33.95
1652;BME280;823;49.028;8.454;2023-04-04T20:04:58;101135.09;;;9.18;35.36
1652;BME280;823;49.028;8.454;2023-04-04T20:09:58;101126.56;;;9.13;36.09
1652;BME280;823;49.028;8.454;2023-04-04T20:14:58;101129.38;;;8.97;35.75
1652;BME280;823;49.028;8.454;2023-04-04T20:19:59;101133.63;;;9.00;36.28
1652;BME280;823;49.028;8.454;2023-04-04T20:25:00;101129.44;;;8.91;36.84
1652;BME280;823;49.028;8.454;2023-04-04T20:30:00;101127.03;;;8.79;38.29
1652;BME280;823;49.028;8.454;2023-04-04T20:35:01;101123.69;;;8.71;37.46
1652;BME280;823;49.028;8.454;2023-04-04T20:40:08;101127.25;;;8.63;38.44
1652;BME280;823;49.028;8.454;2023-04-04T20:45:31;101123.84;;;8.61;38.41
1652;BME280;823;49.028;8.454;2023-04-04T20:50:41;101125.69;;;8.50;37.75
1652;BME280;823;49.028;8.454;2023-04-04T20:55:41;101133.41;;;8.50;37.35
1652;BME280;823;49.028;8.454;2023-04-04T21:00:42;101132.66;;;8.40;38.07
1652;BME280;823;49.028;8.454;2023-04-04T21:05:42;101126.94;;;8.15;36.33
1652;BME280;823;49.028;8.454;2023-04-04T21:15:50;101133.75;;;8.19;37.14
1652;BME280;823;49.028;8.454;2023-04-04T21:25:55;101145.00;;;8.12;37.09
1652;BME280;823;49.028;8.454;2023-04-04T21:30:57;101138.13;;;8.11;37.63
1652;BME280;823;49.028;8.454;2023-04-04T21:35:58;101141.59;;;8.11;38.81
1652;BME280;823;49.028;8.454;2023-04-04T21:41:11;101141.63;;;8.05;38.09
1652;BME280;823;49.028;8.454;2023-04-04T21:46:14;101148.53;;;8.03;37.72
1652;BME280;823;49.028;8.454;2023-04-04T21:51:15;101147.78;;;7.95;40.45
1652;BME280;823;49.028;8.454;2023-04-04T21:56:16;101141.03;;;7.80;40.40
1652;BME280;823;49.028;8.454;2023-04-04T22:01:17;101149.78;;;7.62;40.57
1652;BME280;823;49.028;8.454;2023-04-04T22:06:19;101153.28;;;7.52;42.65
1652;BME280;823;49.028;8.454;2023-04-04T22:11:21;101149.06;;;7.43;42.43
1652;BME280;823;49.028;8.454;2023-04-04T22:16:22;101156.03;;;7.30;42.36
1652;BME280;823;49.028;8.454;2023-04-04T22:21:25;101157.88;;;7.09;43.14
1652;BME280;823;49.028;8.454;2023-04-04T22:26:27;101157.00;;;7.13;43.62
1652;BME280;823;49.028;8.454;2023-04-04T22:31:33;101155.31;;;7.11;42.00
1652;BME280;823;49.028;8.454;2023-04-04T22:36:33;101162.22;;;7.03;42.21
1652;BME280;823;49.028;8.454;2023-04-04T22:41:34;101154.53;;;6.98;43.34
1652;BME280;823;49.028;8.454;2023-04-04T22:46:34;101155.41;;;6.92;43.41
1652;BME280;823;49.028;8.454;2023-04-04T22:51:35;101151.16;;;6.88;44.02
1652;BME280;823;49.028;8.454;2023-04-04T22:56:43;101145.19;;;6.83;43.82
1652;BME280;823;49.028;8.454;2023-04-04T23:01:44;101143.47;;;6.82;43.33
1652;BME280;823;49.028;8.454;2023-04-04T23:06:44;101134.88;;;6.83;43.95
1652;BME280;823;49.028;8.454;2023-04-04T23:11:45;101128.91;;;6.84;42.85
1652;BME280;823;49.028;8.454;2023-04-04T23:16:46;101128.94;;;6.73;44.10
1652;BME280;823;49.028;8.454;2023-04-04T23:21:46;101117.78;;;6.76;43.96
1652;BME280;823;49.028;8.454;2023-04-04T23:26:46;101118.69;;;6.72;43.98
1652;BME280;823;49.028;8.454;2023-04-04T23:31:46;101119.56;;;6.66;44.69
1652;BME280;823;49.028;8.454;2023-04-04T23:36:48;101105.00;;;6.65;44.42
1652;BME280;823;49.028;8.454;2023-04-04T23:41:49;101103.28;;;6.64;43.61
1652;BME280;823;49.028;8.454;2023-04-04T23:46:50;101102.44;;;6.62;43.97
1652;BME280;823;49.028;8.454;2023-04-04T23:51:50;101102.44;;;6.62;43.28
1652;BME280;823;49.028;8.454;2023-04-04T23:56:51;101098.16;;;6.59;43.63
